createdAt,value
2023-01-29T00:01:14.957Z,5.28
2023-01-29T00:03:31.925Z,5.47
2023-01-29T00:05:49.282Z,5.30
2023-01-29T00:08:06.217Z,5.60
2023-01-29T00:10:23.612Z,5.93
2023-01-29T00:12:40.790Z,5.07
2023-01-29T00:14:58.072Z,5.15
2023-01-29T00:17:15.535Z,5.45
2023-01-29T00:19:32.725Z,5.40
2023-01-29T00:21:49.849Z,5.28
2023-01-29T00:24:06.966Z,4.88
2023-01-29T00:26:24.036Z,5.40
2023-01-29T00:28:41.107Z,5.43
2023-01-29T00:30:58.295Z,5.30
2023-01-29T00:33:16.470Z,5.15
2023-01-29T00:35:33.786Z,5.50
2023-01-29T00:37:50.725Z,5.10
2023-01-29T00:40:08.070Z,5.25
2023-01-29T00:42:25.261Z,5.07
2023-01-29T00:44:42.287Z,5.45
2023-01-29T00:46:59.285Z,5.35
2023-01-29T00:49:17.169Z,5.40
2023-01-29T00:51:34.346Z,5.38
2023-01-29T00:53:51.625Z,5.22
2023-01-29T00:56:09.695Z,5.60
2023-01-29T00:58:26.861Z,5.55
2023-01-29T01:00:43.839Z,5.93
2023-01-29T01:03:01.202Z,5.80
2023-01-29T01:05:19.277Z,5.90
2023-01-29T01:07:36.440Z,5.40
2023-01-29T01:09:53.785Z,5.38
2023-01-29T01:12:12.229Z,6.15
2023-01-29T01:14:29.377Z,5.80
2023-01-29T01:16:46.358Z,6.10
2023-01-29T01:19:03.312Z,5.57
2023-01-29T01:21:20.699Z,5.85
2023-01-29T01:23:38.096Z,5.85
2023-01-29T01:25:56.514Z,6.03
2023-01-29T01:28:13.493Z,5.78
2023-01-29T01:30:30.997Z,5.95
2023-01-29T01:32:48.137Z,6.38
2023-01-29T01:35:06.207Z,6.78
2023-01-29T01:37:23.207Z,6.10
2023-01-29T01:39:41.237Z,6.28
2023-01-29T01:41:58.291Z,5.93
2023-01-29T01:44:16.603Z,6.43
2023-01-29T01:46:33.709Z,5.65
2023-01-29T01:48:50.724Z,6.40
2023-01-29T01:51:11.002Z,6.15
2023-01-29T01:53:28.232Z,6.28
2023-01-29T01:55:47.724Z,6.43
2023-01-29T01:58:04.876Z,6.13
2023-01-29T02:00:23.007Z,6.10
2023-01-29T02:02:40.199Z,6.43
2023-01-29T02:04:57.465Z,5.97
2023-01-29T02:07:14.533Z,5.68
2023-01-29T02:09:31.467Z,6.32
2023-01-29T02:11:49.445Z,5.93
2023-01-29T02:14:06.444Z,5.88
2023-01-29T02:16:24.179Z,5.85
2023-01-29T02:18:41.792Z,6.22
2023-01-29T02:20:58.916Z,6.05
2023-01-29T02:23:15.952Z,6.10
2023-01-29T02:25:34.056Z,6.00
2023-01-29T02:27:51.082Z,6.00
2023-01-29T02:30:08.159Z,5.88
2023-01-29T02:32:26.206Z,6.07
2023-01-29T02:34:43.315Z,6.35
2023-01-29T02:37:00.678Z,6.28
2023-01-29T02:39:17.727Z,6.40
2023-01-29T02:41:34.818Z,6.80
2023-01-29T02:43:51.775Z,6.13
2023-01-29T02:46:08.914Z,6.32
2023-01-29T02:48:26.976Z,6.07
2023-01-29T02:50:44.307Z,6.32
2023-01-29T02:53:01.696Z,6.13
2023-01-29T02:55:19.041Z,5.57
2023-01-29T02:57:36.011Z,5.97
2023-01-29T02:59:53.250Z,6.10
2023-01-29T03:02:11.719Z,6.22
2023-01-29T03:04:28.902Z,6.13
2023-01-29T03:06:46.048Z,5.88
2023-01-29T03:09:03.474Z,5.70
2023-01-29T03:11:23.866Z,6.30
2023-01-29T03:13:41.015Z,5.93
2023-01-29T03:15:58.137Z,5.90
2023-01-29T03:18:16.372Z,6.05
2023-01-29T03:20:33.450Z,5.72
2023-01-29T03:22:52.208Z,6.05
2023-01-29T03:25:09.384Z,5.80
2023-01-29T03:27:26.351Z,6.25
2023-01-29T03:29:43.361Z,5.60
2023-01-29T03:32:00.642Z,5.95
2023-01-29T03:34:17.574Z,6.22
2023-01-29T03:36:34.815Z,5.90
2023-01-29T03:38:51.874Z,6.05
2023-01-29T03:41:08.968Z,6.57
2023-01-29T03:43:26.277Z,6.20
2023-01-29T03:45:43.763Z,6.45
2023-01-29T03:48:02.037Z,6.30
2023-01-29T03:50:19.426Z,6.25
2023-01-29T03:52:36.499Z,6.43
2023-01-29T03:54:53.495Z,6.57
2023-01-29T03:57:10.533Z,6.03
2023-01-29T03:59:27.872Z,5.60
2023-01-29T04:01:44.983Z,6.00
2023-01-29T04:04:02.292Z,6.70
2023-01-29T04:06:20.610Z,6.70
2023-01-29T04:08:38.672Z,6.68
2023-01-29T04:10:56.736Z,6.60
2023-01-29T04:13:14.041Z,6.30
2023-01-29T04:15:30.948Z,6.25
2023-01-29T04:17:48.231Z,6.68
2023-01-29T04:20:05.211Z,6.80
2023-01-29T04:22:22.209Z,6.20
2023-01-29T04:24:39.190Z,6.85
2023-01-29T04:26:56.401Z,6.68
2023-01-29T04:29:13.490Z,6.57
2023-01-29T04:31:30.956Z,6.85
2023-01-29T04:33:49.086Z,6.38
2023-01-29T04:36:07.151Z,5.95
2023-01-29T04:38:24.506Z,6.25
2023-01-29T04:40:41.554Z,7.18
2023-01-29T04:42:58.554Z,6.60
2023-01-29T04:45:15.580Z,5.72
2023-01-29T04:47:32.729Z,5.97
2023-01-29T04:49:49.776Z,6.28
2023-01-29T04:52:06.823Z,5.57
2023-01-29T04:54:23.847Z,5.70
2023-01-29T04:56:40.920Z,5.97
2023-01-29T04:58:57.977Z,6.55
2023-01-29T05:01:15.262Z,6.30
2023-01-29T05:03:32.555Z,6.03
2023-01-29T05:05:50.649Z,5.97
2023-01-29T05:08:07.960Z,6.28
2023-01-29T05:10:25.043Z,6.20
2023-01-29T05:12:42.141Z,6.80
2023-01-29T05:14:59.428Z,6.22
2023-01-29T05:17:18.005Z,7.15
2023-01-29T05:19:34.941Z,6.88
2023-01-29T05:21:53.298Z,6.63
2023-01-29T05:24:10.690Z,6.13
2023-01-29T05:26:29.055Z,6.20
2023-01-29T05:28:46.166Z,6.60
2023-01-29T05:31:03.634Z,6.00
2023-01-29T05:33:21.132Z,6.72
2023-01-29T05:35:38.229Z,6.88
2023-01-29T05:37:55.551Z,6.38
2023-01-29T05:40:13.612Z,6.60
2023-01-29T05:42:30.950Z,6.72
2023-01-29T05:44:48.281Z,6.97
2023-01-29T05:47:06.407Z,7.30
2023-01-29T05:49:23.399Z,7.28
2023-01-29T05:51:40.360Z,6.82
2023-01-29T05:53:58.637Z,7.45
2023-01-29T05:56:16.912Z,7.20
2023-01-29T05:58:34.067Z,6.82
2023-01-29T06:00:51.429Z,7.18
2023-01-29T06:03:09.866Z,7.20
2023-01-29T06:05:27.991Z,7.70
2023-01-29T06:07:45.034Z,7.20
2023-01-29T06:10:02.327Z,6.90
2023-01-29T06:12:19.290Z,6.43
2023-01-29T06:14:37.593Z,6.80
2023-01-29T06:16:56.798Z,6.72
2023-01-29T06:19:13.989Z,6.85
2023-01-29T06:21:31.801Z,8.20
2023-01-29T06:23:48.907Z,7.32
2023-01-29T06:26:06.712Z,8.07
2023-01-29T06:28:23.790Z,7.65
2023-01-29T06:30:41.095Z,8.02
2023-01-29T06:32:58.173Z,7.63
2023-01-29T06:35:15.286Z,11.00
2023-01-29T06:37:32.677Z,11.15
2023-01-29T06:39:49.663Z,21.80
2023-01-29T06:42:06.945Z,24.15
2023-01-29T06:44:23.985Z,17.13
2023-01-29T06:46:41.209Z,17.92
2023-01-29T06:48:58.533Z,13.93
2023-01-29T06:51:15.606Z,8.50
2023-01-29T06:53:32.588Z,9.23
2023-01-29T06:55:50.479Z,7.95
2023-01-29T06:58:07.485Z,8.13
2023-01-29T07:00:24.525Z,9.30
2023-01-29T07:02:41.576Z,9.00
2023-01-29T07:04:58.912Z,8.90
2023-01-29T07:07:16.249Z,8.65
2023-01-29T07:09:33.545Z,8.77
2023-01-29T07:11:50.606Z,8.20
2023-01-29T07:14:07.665Z,8.18
2023-01-29T07:16:25.922Z,8.60
2023-01-29T07:18:43.028Z,8.45
2023-01-29T07:21:00.038Z,9.30
2023-01-29T07:23:17.083Z,8.18
2023-01-29T07:25:33.995Z,8.23
2023-01-29T07:27:51.068Z,8.30
2023-01-29T07:30:08.298Z,7.82
2023-01-29T07:32:25.355Z,7.68
2023-01-29T07:34:42.242Z,9.07
2023-01-29T07:36:59.313Z,9.05
2023-01-29T07:39:16.363Z,11.52
2023-01-29T07:41:33.390Z,11.07
2023-01-29T07:43:50.414Z,12.77
2023-01-29T07:46:07.494Z,18.73
2023-01-29T07:48:25.510Z,16.77
2023-01-29T07:50:42.790Z,13.73
2023-01-29T07:52:59.826Z,13.68
2023-01-29T07:55:16.899Z,10.10
2023-01-29T07:57:33.908Z,34.58
2023-01-29T07:59:50.998Z,30.00
2023-01-29T08:02:08.041Z,26.30
2023-01-29T08:04:25.433Z,22.30
2023-01-29T08:06:42.467Z,12.07
2023-01-29T08:08:59.768Z,10.40
2023-01-29T08:11:16.737Z,9.65
2023-01-29T08:13:34.576Z,7.78
2023-01-29T08:15:51.850Z,10.77
2023-01-29T08:18:08.933Z,7.13
2023-01-29T08:20:26.897Z,7.13
2023-01-29T08:22:44.163Z,6.85
2023-01-29T08:25:08.257Z,8.00
2023-01-29T08:27:25.540Z,10.02
2023-01-29T08:29:42.808Z,9.68
2023-01-29T08:31:59.902Z,7.97
2023-01-29T08:34:16.976Z,8.10
2023-01-29T08:36:35.012Z,7.88
2023-01-29T08:38:52.259Z,7.10
2023-01-29T08:41:09.215Z,7.95
2023-01-29T08:43:26.217Z,7.68
2023-01-29T08:45:43.316Z,7.05
2023-01-29T08:48:01.620Z,7.90
2023-01-29T08:50:18.851Z,7.32
2023-01-29T08:52:36.122Z,7.80
2023-01-29T08:54:53.405Z,8.23
2023-01-29T08:57:11.644Z,7.75
2023-01-29T08:59:28.668Z,7.93
2023-01-29T09:01:45.645Z,7.95
2023-01-29T09:04:02.873Z,9.00
2023-01-29T09:06:19.874Z,8.85
2023-01-29T09:08:37.843Z,8.55
2023-01-29T09:10:54.770Z,6.68
2023-01-29T09:13:11.713Z,7.38
2023-01-29T09:15:28.746Z,7.57
2023-01-29T09:17:45.782Z,7.28
2023-01-29T09:20:03.105Z,9.25
2023-01-29T09:22:20.445Z,8.43
2023-01-29T09:24:37.330Z,8.70
2023-01-29T09:26:54.290Z,9.02
2023-01-29T09:29:12.533Z,12.73
2023-01-29T09:31:29.950Z,10.40
2023-01-29T09:33:47.004Z,11.00
2023-01-29T09:36:04.095Z,9.23
2023-01-29T09:38:21.117Z,10.13
2023-01-29T09:40:38.159Z,8.82
2023-01-29T09:42:55.176Z,7.82
2023-01-29T09:45:18.277Z,11.27
2023-01-29T09:47:36.536Z,9.60
2023-01-29T09:49:53.586Z,9.05
2023-01-29T09:52:10.664Z,9.43
2023-01-29T09:54:27.977Z,8.52
2023-01-29T09:56:45.016Z,8.25
2023-01-29T09:59:02.174Z,10.88
2023-01-29T10:01:19.290Z,11.10
2023-01-29T10:03:36.750Z,8.40
2023-01-29T10:05:53.864Z,9.32
2023-01-29T10:08:11.000Z,9.88
2023-01-29T10:10:28.033Z,8.98
2023-01-29T10:12:45.010Z,11.88
2023-01-29T10:15:02.019Z,10.13
2023-01-29T10:17:19.492Z,9.82
2023-01-29T10:19:36.600Z,12.80
2023-01-29T10:21:53.985Z,14.60
2023-01-29T10:24:12.364Z,10.80
2023-01-29T10:26:29.769Z,11.07
2023-01-29T10:28:48.192Z,11.30
2023-01-29T10:31:05.346Z,12.65
2023-01-29T10:33:22.700Z,10.13
2023-01-29T10:35:40.619Z,10.02
2023-01-29T10:37:57.650Z,8.52
2023-01-29T10:40:14.721Z,10.80
2023-01-29T10:42:31.700Z,9.80
2023-01-29T10:44:48.929Z,10.25
2023-01-29T10:47:05.994Z,10.15
2023-01-29T10:49:23.027Z,11.27
2023-01-29T10:51:41.026Z,14.23
2023-01-29T10:53:58.388Z,9.88
2023-01-29T10:56:22.788Z,9.68
2023-01-29T10:58:40.468Z,14.90
2023-01-29T11:00:57.555Z,11.10
2023-01-29T11:03:26.456Z,8.80
2023-01-29T11:05:45.104Z,9.02
2023-01-29T11:08:03.122Z,8.40
2023-01-29T11:10:20.422Z,8.45
2023-01-29T11:12:37.353Z,7.65
2023-01-29T11:14:54.281Z,11.80
2023-01-29T11:17:11.223Z,9.80
2023-01-29T11:19:28.548Z,8.77
2023-01-29T11:21:45.686Z,8.82
2023-01-29T11:24:02.720Z,13.18
2023-01-29T11:26:20.059Z,14.18
2023-01-29T11:28:37.089Z,10.40
2023-01-29T11:30:55.124Z,9.07
2023-01-29T11:33:12.103Z,9.60
2023-01-29T11:35:29.107Z,22.23
2023-01-29T11:37:46.376Z,12.15
2023-01-29T11:40:03.754Z,9.07
2023-01-29T11:42:20.816Z,8.65
2023-01-29T11:44:37.746Z,12.98
2023-01-29T11:46:54.828Z,30.90
2023-01-29T11:49:20.586Z,11.85
2023-01-29T11:51:37.717Z,11.23
2023-01-29T11:53:54.872Z,9.25
2023-01-29T11:56:12.029Z,9.25
2023-01-29T11:58:29.105Z,7.95
2023-01-29T12:00:49.029Z,9.07
2023-01-29T12:03:06.022Z,9.75
2023-01-29T12:05:24.247Z,9.00
2023-01-29T12:07:41.467Z,8.95
2023-01-29T12:09:58.538Z,11.68
2023-01-29T12:12:16.079Z,22.13
2023-01-29T12:14:33.210Z,12.65
2023-01-29T12:16:50.196Z,11.05
2023-01-29T12:19:08.161Z,8.48
2023-01-29T12:21:25.118Z,26.60
2023-01-29T12:23:42.126Z,16.95
2023-01-29T12:26:01.107Z,16.58
2023-01-29T12:28:18.029Z,22.50
2023-01-29T12:30:35.114Z,19.48
2023-01-29T12:32:52.219Z,17.15
2023-01-29T12:35:10.639Z,21.15
2023-01-29T12:37:27.656Z,36.67
2023-01-29T12:39:44.711Z,14.07
2023-01-29T12:42:02.095Z,18.92
2023-01-29T12:44:20.182Z,19.13
2023-01-29T12:46:37.210Z,17.95
2023-01-29T12:48:55.489Z,12.95
2023-01-29T12:51:12.483Z,8.40
2023-01-29T12:53:29.659Z,8.13
2023-01-29T12:55:46.625Z,8.65
2023-01-29T12:58:03.501Z,8.02
2023-01-29T13:00:21.105Z,9.70
2023-01-29T13:02:40.502Z,29.33
2023-01-29T13:04:57.582Z,23.83
2023-01-29T13:07:14.534Z,16.65
2023-01-29T13:09:31.982Z,12.70
2023-01-29T13:11:49.111Z,9.10
2023-01-29T13:14:09.651Z,7.88
2023-01-29T13:16:30.003Z,7.05
2023-01-29T13:18:47.023Z,7.63
2023-01-29T13:21:04.481Z,7.20
2023-01-29T13:23:21.515Z,6.88
2023-01-29T13:25:38.929Z,7.00
2023-01-29T13:27:57.290Z,7.80
2023-01-29T13:30:14.468Z,7.20
2023-01-29T13:32:31.528Z,10.00
2023-01-29T13:34:48.565Z,8.10
2023-01-29T13:37:05.703Z,7.65
2023-01-29T13:39:23.061Z,9.60
2023-01-29T13:41:40.096Z,8.25
2023-01-29T13:43:58.825Z,7.22
2023-01-29T13:46:16.852Z,8.48
2023-01-29T13:48:33.841Z,7.50
2023-01-29T13:50:50.794Z,7.22
2023-01-29T13:53:08.017Z,7.00
2023-01-29T13:55:26.301Z,6.85
2023-01-29T13:57:43.668Z,6.65
2023-01-29T14:00:00.746Z,6.30
2023-01-29T14:02:17.986Z,6.55
2023-01-29T14:04:35.029Z,6.65
2023-01-29T14:06:52.855Z,6.50
2023-01-29T14:09:10.895Z,6.65
2023-01-29T14:11:28.199Z,6.68
2023-01-29T14:13:45.377Z,6.53
2023-01-29T14:16:02.624Z,6.70
2023-01-29T14:18:19.665Z,7.05
2023-01-29T14:20:45.919Z,6.40
2023-01-29T14:23:04.290Z,6.63
2023-01-29T14:25:21.351Z,7.35
2023-01-29T14:27:38.594Z,6.90
2023-01-29T14:29:55.512Z,6.93
2023-01-29T14:32:12.511Z,6.75
2023-01-29T14:34:29.569Z,6.78
2023-01-29T14:36:46.798Z,7.03
2023-01-29T14:39:03.851Z,6.68
2023-01-29T14:41:22.076Z,7.03
2023-01-29T14:43:39.120Z,6.47
2023-01-29T14:45:56.107Z,6.53
2023-01-29T14:48:13.372Z,6.85
2023-01-29T14:50:33.011Z,7.22
2023-01-29T14:52:50.357Z,6.40
2023-01-29T14:55:08.380Z,6.63
2023-01-29T14:57:25.735Z,7.00
2023-01-29T14:59:44.139Z,6.43
2023-01-29T15:02:01.206Z,6.78
2023-01-29T15:04:19.235Z,6.63
2023-01-29T15:06:36.548Z,6.57
2023-01-29T15:08:53.561Z,6.70
2023-01-29T15:11:10.576Z,7.35
2023-01-29T15:13:27.870Z,6.40
2023-01-29T15:15:44.815Z,7.07
2023-01-29T15:18:01.842Z,7.18
2023-01-29T15:20:18.777Z,6.78
2023-01-29T15:22:35.727Z,7.00
2023-01-29T15:24:52.747Z,7.03
2023-01-29T15:27:10.020Z,6.70
2023-01-29T15:29:27.126Z,6.93
2023-01-29T15:31:46.312Z,6.80
2023-01-29T15:34:03.996Z,6.65
2023-01-29T15:36:20.999Z,6.28
2023-01-29T15:38:38.201Z,6.85
2023-01-29T15:40:55.452Z,6.22
2023-01-29T15:43:12.460Z,6.80
2023-01-29T15:45:29.498Z,6.57
2023-01-29T15:47:46.585Z,6.50
2023-01-29T15:50:04.588Z,6.55
2023-01-29T15:52:21.673Z,6.38
2023-01-29T15:54:38.620Z,7.00
2023-01-29T15:56:55.666Z,6.95
2023-01-29T15:59:12.682Z,6.25
2023-01-29T16:01:29.696Z,6.30
2023-01-29T16:03:46.660Z,7.03
2023-01-29T16:06:04.000Z,6.43
2023-01-29T16:08:21.013Z,6.07
2023-01-29T16:10:37.938Z,6.65
2023-01-29T16:12:54.933Z,6.68
2023-01-29T16:15:12.216Z,6.70
2023-01-29T16:17:29.240Z,7.03
2023-01-29T16:19:46.242Z,7.10
2023-01-29T16:22:04.477Z,7.28
2023-01-29T16:24:21.424Z,7.10
2023-01-29T16:26:38.709Z,12.00
2023-01-29T16:28:55.765Z,21.77
2023-01-29T16:31:12.847Z,24.52
2023-01-29T16:33:30.251Z,27.00
2023-01-29T16:35:47.212Z,25.13
2023-01-29T16:38:04.331Z,22.55
2023-01-29T16:40:21.384Z,17.92
2023-01-29T16:42:38.636Z,15.45
2023-01-29T16:44:56.818Z,13.50
2023-01-29T16:47:13.885Z,12.88
2023-01-29T16:49:32.241Z,13.02
2023-01-29T16:51:49.331Z,13.05
2023-01-29T16:54:06.260Z,16.42
2023-01-29T16:56:23.582Z,15.15
2023-01-29T16:58:40.565Z,13.68
2023-01-29T17:00:57.922Z,13.45
2023-01-29T17:03:14.935Z,12.48
2023-01-29T17:05:31.929Z,11.52
2023-01-29T17:07:49.041Z,11.43
2023-01-29T17:10:06.105Z,10.20
2023-01-29T17:12:23.092Z,9.63
2023-01-29T17:14:40.432Z,11.00
2023-01-29T17:16:57.738Z,11.13
2023-01-29T17:19:14.845Z,11.48
2023-01-29T17:21:31.907Z,11.75
2023-01-29T17:23:49.142Z,12.88
2023-01-29T17:26:06.407Z,10.95
2023-01-29T17:28:23.656Z,11.20
2023-01-29T17:30:41.040Z,11.45
2023-01-29T17:32:58.042Z,11.80
2023-01-29T17:35:15.628Z,11.38
2023-01-29T17:37:33.285Z,12.32
2023-01-29T17:39:51.271Z,11.63
2023-01-29T17:42:08.214Z,11.93
2023-01-29T17:44:25.177Z,11.27
2023-01-29T17:46:42.286Z,11.02
2023-01-29T17:48:59.220Z,10.90
2023-01-29T17:51:16.456Z,10.77
2023-01-29T17:53:44.809Z,10.55
2023-01-29T17:56:03.175Z,10.52
2023-01-29T17:58:20.181Z,11.40
2023-01-29T18:00:38.163Z,11.07
2023-01-29T18:02:55.170Z,12.32
2023-01-29T18:05:12.437Z,12.90
2023-01-29T18:07:29.464Z,12.85
2023-01-29T18:09:46.803Z,11.98
2023-01-29T18:12:04.809Z,12.27
2023-01-29T18:14:21.923Z,11.80
2023-01-29T18:16:39.819Z,12.05
2023-01-29T18:18:58.168Z,11.68
2023-01-29T18:21:16.162Z,11.30
2023-01-29T18:23:33.263Z,12.40
2023-01-29T18:25:50.560Z,11.43
2023-01-29T18:28:08.539Z,10.80
2023-01-29T18:30:25.578Z,11.88
2023-01-29T18:32:42.692Z,12.20
2023-01-29T18:35:00.670Z,12.10
2023-01-29T18:37:17.678Z,11.65
2023-01-29T18:39:35.649Z,11.77
2023-01-29T18:41:53.618Z,12.38
2023-01-29T18:44:10.886Z,11.40
2023-01-29T18:46:28.307Z,11.60
2023-01-29T18:48:46.304Z,11.88
2023-01-29T18:51:03.608Z,11.38
2023-01-29T18:53:20.690Z,11.98
2023-01-29T18:55:38.914Z,11.82
2023-01-29T18:58:27.523Z,12.35
2023-01-29T19:00:32.970Z,12.77
2023-01-29T19:02:50.610Z,12.30
2023-01-29T19:05:07.685Z,13.35
2023-01-29T19:07:24.594Z,13.23
2023-01-29T19:09:41.761Z,13.15
2023-01-29T19:11:58.978Z,13.35
2023-01-29T19:14:16.201Z,12.95
2023-01-29T19:16:34.421Z,14.05
2023-01-29T19:18:51.479Z,13.00
2023-01-29T19:21:08.548Z,13.93
2023-01-29T19:23:25.853Z,13.30
2023-01-29T19:25:43.913Z,12.43
2023-01-29T19:28:00.910Z,12.63
2023-01-29T19:30:18.050Z,13.00
2023-01-29T19:32:35.152Z,12.88
2023-01-29T19:34:52.222Z,12.88
2023-01-29T19:37:09.509Z,13.40
2023-01-29T19:39:28.942Z,13.57
2023-01-29T19:41:46.617Z,14.07
2023-01-29T19:44:03.679Z,14.50
2023-01-29T19:46:20.778Z,16.20
2023-01-29T19:48:38.617Z,15.00
2023-01-29T19:50:55.903Z,17.08
2023-01-29T19:53:12.936Z,16.10
2023-01-29T19:55:29.888Z,15.48
2023-01-29T19:57:46.766Z,16.83
2023-01-29T20:00:04.053Z,17.52
2023-01-29T20:02:21.299Z,17.23
2023-01-29T20:04:38.346Z,17.65
2023-01-29T20:06:55.347Z,17.60
2023-01-29T20:09:12.422Z,17.30
2023-01-29T20:11:29.483Z,18.48
2023-01-29T20:13:46.569Z,16.27
2023-01-29T20:16:04.107Z,16.27
2023-01-29T20:18:21.394Z,15.57
2023-01-29T20:20:38.638Z,16.10
2023-01-29T20:22:55.683Z,16.30
2023-01-29T20:25:12.968Z,16.05
2023-01-29T20:27:30.217Z,16.15
2023-01-29T20:29:47.928Z,16.33
2023-01-29T20:32:05.018Z,16.67
2023-01-29T20:34:22.297Z,17.23
2023-01-29T20:36:39.305Z,17.55
2023-01-29T20:38:56.286Z,16.52
2023-01-29T20:41:13.683Z,17.85
2023-01-29T20:43:30.765Z,17.30
2023-01-29T20:45:47.928Z,16.80
2023-01-29T20:48:05.246Z,16.92
2023-01-29T20:50:22.561Z,17.63
2023-01-29T20:52:40.565Z,17.60
2023-01-29T20:54:57.766Z,16.70
2023-01-29T20:57:16.223Z,15.75
2023-01-29T20:59:33.314Z,17.35
2023-01-29T21:01:50.663Z,18.10
2023-01-29T21:04:07.981Z,17.70
2023-01-29T21:06:25.085Z,17.40
2023-01-29T21:08:42.361Z,17.80
2023-01-29T21:11:01.766Z,17.67
2023-01-29T21:13:18.751Z,18.38
2023-01-29T21:15:36.049Z,18.27
2023-01-29T21:17:53.422Z,19.00
2023-01-29T21:20:10.676Z,19.38
2023-01-29T21:22:28.760Z,20.52
2023-01-29T21:24:46.730Z,21.20
2023-01-29T21:27:03.778Z,19.80
2023-01-29T21:29:21.007Z,19.92
2023-01-29T21:31:40.652Z,19.58
2023-01-29T21:33:57.944Z,20.38
2023-01-29T21:36:15.229Z,19.70
2023-01-29T21:38:32.474Z,18.48
2023-01-29T21:40:49.439Z,18.95
2023-01-29T21:43:07.487Z,20.38
2023-01-29T21:45:24.844Z,20.30
2023-01-29T21:47:42.775Z,18.95
2023-01-29T21:49:59.812Z,21.20
2023-01-29T21:52:16.852Z,21.15
2023-01-29T21:54:35.196Z,21.02
2023-01-29T21:56:53.169Z,21.77
2023-01-29T21:59:10.146Z,21.52
2023-01-29T22:01:36.476Z,21.40
2023-01-29T22:03:55.174Z,21.60
2023-01-29T22:06:12.198Z,19.77
2023-01-29T22:08:29.072Z,21.17
2023-01-29T22:10:47.014Z,21.55
2023-01-29T22:13:04.259Z,20.45
2023-01-29T22:15:23.597Z,21.05
2023-01-29T22:17:41.211Z,21.42
2023-01-29T22:19:58.315Z,21.15
2023-01-29T22:22:16.321Z,21.63
2023-01-29T22:24:33.390Z,22.08
2023-01-29T22:26:50.540Z,22.65
2023-01-29T22:29:07.861Z,22.55
2023-01-29T22:31:24.942Z,21.50
2023-01-29T22:33:41.986Z,21.50
2023-01-29T22:35:58.915Z,22.20
2023-01-29T22:38:15.855Z,22.20
2023-01-29T22:40:34.106Z,21.90
2023-01-29T22:42:51.059Z,20.25
2023-01-29T22:45:08.137Z,20.15
2023-01-29T22:47:25.062Z,20.15
2023-01-29T22:49:43.338Z,20.40
2023-01-29T22:52:00.689Z,20.65
2023-01-29T22:54:18.403Z,19.48
2023-01-29T22:56:36.617Z,18.90
2023-01-29T22:58:53.729Z,19.13
2023-01-29T23:01:11.053Z,18.65
2023-01-29T23:03:28.084Z,19.13
2023-01-29T23:05:45.389Z,19.65
2023-01-29T23:08:02.977Z,18.58
2023-01-29T23:10:20.083Z,18.75
2023-01-29T23:12:37.154Z,19.27
2023-01-29T23:14:54.066Z,18.85
2023-01-29T23:17:12.318Z,19.70
2023-01-29T23:19:29.299Z,19.58
2023-01-29T23:21:46.601Z,19.15
2023-01-29T23:24:03.891Z,19.08
2023-01-29T23:26:22.064Z,19.73
2023-01-29T23:28:39.092Z,18.40
2023-01-29T23:30:56.473Z,18.63
2023-01-29T23:33:14.072Z,19.85
2023-01-29T23:35:31.173Z,19.58
2023-01-29T23:37:48.505Z,19.58
2023-01-29T23:40:05.757Z,18.92
2023-01-29T23:42:22.708Z,19.73
2023-01-29T23:44:40.121Z,18.95
2023-01-29T23:46:57.435Z,19.55
2023-01-29T23:49:14.693Z,20.20
2023-01-29T23:51:35.052Z,19.92
2023-01-29T23:53:52.309Z,20.40
2023-01-29T23:56:09.358Z,20.25
2023-01-29T23:58:26.391Z,19.90
